West Baden Springs, IN (47469)

5:13 PM EDT on August 30, 2016 (GMT -0400)
fL | | Change Station

Elev 758 ft 38.53 °N, 86.65 °W | Updated 14 minutes ago

Clear
Clear
90.1 °F
Feels Like 98 °F
N
2.0
Wind Variable Wind from ESE
Gusts 5.0 mph

Today
High -- | Low -- °F
--% Chance of Precip.
Yesterday
High -- | Low -- °F
Precip. -- in
Pressure 30.05 in
Visibility 10.0 miles
Clouds Clear
Heat Index 98 °F
Dew Point 72 °F
Humidity 56%
Rainfall 0.00 in
Snow Depth Not available.
7:14 AM 8:18 PM
Waning Crescent, 2% visible
METAR KHNB 302055Z AUTO 00000KT 10SM CLR 32/20 A3005 RMK AO1 57020
Pressure 30.05 in
Visibility 10.0 miles
Clouds Clear
Heat Index 98 °F
Dew Point 72 °F
Humidity 56%
Rainfall 0.00 in
Snow Depth Not available.
7:14 AM 8:18 PM
Waning Crescent, 2% visible
METAR KHNB 302055Z AUTO 00000KT 10SM CLR 32/20 A3005 RMK AO1 57020

10-Day Weather Forecast

Almanac

Astronomy

Aug. 30, 2016 Rise Set
Actual Time
Civil Twilight
Nautical Twilight
Astronomical Twilight
Moon
Length of Visible Light
Length of Day
Tomorrow will be .
, % of the Moon is Illuminated

Today's Extremes

State Highs State Lows

Community

WunderPhotos

Upload Photos

1,935,897 photos uploaded!

WunderBlog® & News

Nearby

Air Quality

  Air Quality AQ Index Pollutant
Not available.

Snow Depth

Station Depth Elevation

Earthquake Activity

City Distance Mag. Time & Date
Minimum magnitude displayed is 2.5.

Coastal Water Temperatures

Place Temperature

Stations

Nearby Weather Stations

Station Location Temp. Windchill Dew Point Humidity Wind Precip. Elev Updated Type
                   

Watches & Warnings

There are currently no watches in effect.